sensor_id;sensor_type;location;lat;lon;timestamp;P1;durP1;ratioP1;P2;durP2;ratioP2
31114;SDS011;17764;47.152;9.828;2023-04-03T00:00:53;1.40;;;1.30;;
31114;SDS011;17764;47.152;9.828;2023-04-03T00:03:20;1.17;;;1.07;;
31114;SDS011;17764;47.152;9.828;2023-04-03T00:05:46;1.20;;;1.10;;
31114;SDS011;17764;47.152;9.828;2023-04-03T00:08:12;1.30;;;1.00;;
31114;SDS011;17764;47.152;9.828;2023-04-03T00:10:38;1.10;;;1.00;;
31114;SDS011;17764;47.152;9.828;2023-04-03T00:13:04;1.07;;;0.97;;
31114;SDS011;17764;47.152;9.828;2023-04-03T00:15:31;1.00;;;0.90;;
31114;SDS011;17764;47.152;9.828;2023-04-03T00:17:57;0.80;;;0.80;;
31114;SDS011;17764;47.152;9.828;2023-04-03T00:20:23;1.10;;;1.00;;
31114;SDS011;17764;47.152;9.828;2023-04-03T00:22:49;1.20;;;0.93;;
31114;SDS011;17764;47.152;9.828;2023-04-03T00:25:16;1.00;;;0.90;;
31114;SDS011;17764;47.152;9.828;2023-04-03T00:27:43;0.83;;;0.80;;
31114;SDS011;17764;47.152;9.828;2023-04-03T00:30:10;0.70;;;0.70;;
31114;SDS011;17764;47.152;9.828;2023-04-03T00:32:37;0.80;;;0.80;;
31114;SDS011;17764;47.152;9.828;2023-04-03T00:35:03;1.37;;;0.90;;
31114;SDS011;17764;47.152;9.828;2023-04-03T00:37:29;0.70;;;0.67;;
31114;SDS011;17764;47.152;9.828;2023-04-03T00:39:55;0.70;;;0.60;;
31114;SDS011;17764;47.152;9.828;2023-04-03T00:42:21;0.70;;;0.70;;
31114;SDS011;17764;47.152;9.828;2023-04-03T00:47:15;0.97;;;0.73;;
31114;SDS011;17764;47.152;9.828;2023-04-03T00:49:41;0.80;;;0.70;;
31114;SDS011;17764;47.152;9.828;2023-04-03T00:52:09;0.97;;;0.60;;
31114;SDS011;17764;47.152;9.828;2023-04-03T00:54:37;0.50;;;0.47;;
31114;SDS011;17764;47.152;9.828;2023-04-03T00:57:04;0.47;;;0.47;;
31114;SDS011;17764;47.152;9.828;2023-04-03T00:59:32;0.60;;;0.50;;
31114;SDS011;17764;47.152;9.828;2023-04-03T01:01:59;0.50;;;0.50;;
31114;SDS011;17764;47.152;9.828;2023-04-03T01:04:30;0.50;;;0.50;;
31114;SDS011;17764;47.152;9.828;2023-04-03T01:06:57;0.60;;;0.40;;
31114;SDS011;17764;47.152;9.828;2023-04-03T01:09:24;0.50;;;0.50;;
31114;SDS011;17764;47.152;9.828;2023-04-03T01:11:51;1.70;;;0.60;;
31114;SDS011;17764;47.152;9.828;2023-04-03T01:14:17;0.40;;;0.40;;
31114;SDS011;17764;47.152;9.828;2023-04-03T01:16:50;0.57;;;0.57;;
31114;SDS011;17764;47.152;9.828;2023-04-03T01:19:17;0.50;;;0.50;;
31114;SDS011;17764;47.152;9.828;2023-04-03T01:21:54;0.60;;;0.60;;
31114;SDS011;17764;47.152;9.828;2023-04-03T01:26:58;1.10;;;0.90;;
31114;SDS011;17764;47.152;9.828;2023-04-03T01:29:24;0.63;;;0.63;;
31114;SDS011;17764;47.152;9.828;2023-04-03T01:31:52;1.07;;;0.60;;
31114;SDS011;17764;47.152;9.828;2023-04-03T01:34:18;0.50;;;0.50;;
31114;SDS011;17764;47.152;9.828;2023-04-03T01:36:44;0.70;;;0.70;;
31114;SDS011;17764;47.152;9.828;2023-04-03T01:39:11;0.70;;;0.70;;
31114;SDS011;17764;47.152;9.828;2023-04-03T01:41:37;2.83;;;0.60;;
31114;SDS011;17764;47.152;9.828;2023-04-03T01:44:03;0.80;;;0.53;;
31114;SDS011;17764;47.152;9.828;2023-04-03T01:46:29;0.60;;;0.60;;
31114;SDS011;17764;47.152;9.828;2023-04-03T01:48:55;0.77;;;0.70;;
31114;SDS011;17764;47.152;9.828;2023-04-03T01:51:21;0.60;;;0.60;;
31114;SDS011;17764;47.152;9.828;2023-04-03T01:53:47;0.73;;;0.60;;
31114;SDS011;17764;47.152;9.828;2023-04-03T01:56:13;0.57;;;0.57;;
31114;SDS011;17764;47.152;9.828;2023-04-03T01:58:39;0.83;;;0.60;;
31114;SDS011;17764;47.152;9.828;2023-04-03T02:01:05;0.50;;;0.50;;
31114;SDS011;17764;47.152;9.828;2023-04-03T02:03:31;0.90;;;0.53;;
31114;SDS011;17764;47.152;9.828;2023-04-03T02:05:58;0.97;;;0.70;;
31114;SDS011;17764;47.152;9.828;2023-04-03T02:08:24;0.50;;;0.50;;
31114;SDS011;17764;47.152;9.828;2023-04-03T02:10:50;0.80;;;0.70;;
31114;SDS011;17764;47.152;9.828;2023-04-03T02:13:17;0.70;;;0.70;;
31114;SDS011;17764;47.152;9.828;2023-04-03T02:15:43;0.60;;;0.60;;
31114;SDS011;17764;47.152;9.828;2023-04-03T02:18:10;1.00;;;0.87;;
31114;SDS011;17764;47.152;9.828;2023-04-03T02:20:36;0.80;;;0.80;;
31114;SDS011;17764;47.152;9.828;2023-04-03T02:23:02;2.10;;;0.70;;
31114;SDS011;17764;47.152;9.828;2023-04-03T02:25:30;0.80;;;0.80;;
31114;SDS011;17764;47.152;9.828;2023-04-03T02:27:56;0.70;;;0.70;;
31114;SDS011;17764;47.152;9.828;2023-04-03T02:30:22;0.70;;;0.70;;
31114;SDS011;17764;47.152;9.828;2023-04-03T02:32:48;0.80;;;0.70;;
31114;SDS011;17764;47.152;9.828;2023-04-03T02:35:14;1.03;;;0.70;;
31114;SDS011;17764;47.152;9.828;2023-04-03T02:37:40;0.87;;;0.80;;
31114;SDS011;17764;47.152;9.828;2023-04-03T02:40:07;0.87;;;0.87;;
31114;SDS011;17764;47.152;9.828;2023-04-03T02:42:33;0.73;;;0.73;;
31114;SDS011;17764;47.152;9.828;2023-04-03T02:44:59;1.57;;;0.70;;
31114;SDS011;17764;47.152;9.828;2023-04-03T02:47:25;0.80;;;0.80;;
31114;SDS011;17764;47.152;9.828;2023-04-03T02:49:51;1.17;;;1.00;;
31114;SDS011;17764;47.152;9.828;2023-04-03T02:52:18;0.97;;;0.80;;
31114;SDS011;17764;47.152;9.828;2023-04-03T02:54:44;0.83;;;0.83;;
31114;SDS011;17764;47.152;9.828;2023-04-03T02:57:10;1.13;;;0.93;;
31114;SDS011;17764;47.152;9.828;2023-04-03T02:59:36;1.20;;;1.10;;
31114;SDS011;17764;47.152;9.828;2023-04-03T03:02:06;1.10;;;1.00;;
31114;SDS011;17764;47.152;9.828;2023-04-03T03:04:32;5.00;;;0.90;;
31114;SDS011;17764;47.152;9.828;2023-04-03T03:06:59;1.13;;;1.03;;
31114;SDS011;17764;47.152;9.828;2023-04-03T03:09:25;1.30;;;1.20;;
31114;SDS011;17764;47.152;9.828;2023-04-03T03:11:51;2.03;;;1.30;;
31114;SDS011;17764;47.152;9.828;2023-04-03T03:14:17;1.37;;;1.20;;
31114;SDS011;17764;47.152;9.828;2023-04-03T03:16:43;2.90;;;1.50;;
31114;SDS011;17764;47.152;9.828;2023-04-03T03:19:09;1.77;;;1.37;;
31114;SDS011;17764;47.152;9.828;2023-04-03T03:21:36;1.50;;;1.40;;
31114;SDS011;17764;47.152;9.828;2023-04-03T03:24:02;1.50;;;1.40;;
31114;SDS011;17764;47.152;9.828;2023-04-03T03:26:28;1.60;;;1.50;;
31114;SDS011;17764;47.152;9.828;2023-04-03T03:28:55;1.93;;;1.60;;
31114;SDS011;17764;47.152;9.828;2023-04-03T03:31:21;3.10;;;1.60;;
31114;SDS011;17764;47.152;9.828;2023-04-03T03:33:47;1.77;;;1.47;;
31114;SDS011;17764;47.152;9.828;2023-04-03T03:36:13;1.70;;;1.60;;
31114;SDS011;17764;47.152;9.828;2023-04-03T03:38:39;2.83;;;1.97;;
31114;SDS011;17764;47.152;9.828;2023-04-03T03:41:05;2.00;;;1.80;;
31114;SDS011;17764;47.152;9.828;2023-04-03T03:43:31;3.00;;;2.07;;
31114;SDS011;17764;47.152;9.828;2023-04-03T03:45:57;2.10;;;1.83;;
31114;SDS011;17764;47.152;9.828;2023-04-03T03:48:23;2.20;;;2.00;;
31114;SDS011;17764;47.152;9.828;2023-04-03T03:50:49;2.13;;;1.90;;
31114;SDS011;17764;47.152;9.828;2023-04-03T03:53:16;2.57;;;2.10;;
31114;SDS011;17764;47.152;9.828;2023-04-03T03:55:42;4.13;;;2.20;;
31114;SDS011;17764;47.152;9.828;2023-04-03T03:58:08;2.33;;;2.13;;
31114;SDS011;17764;47.152;9.828;2023-04-03T04:00:34;2.43;;;2.23;;
31114;SDS011;17764;47.152;9.828;2023-04-03T04:03:00;2.47;;;2.27;;
31114;SDS011;17764;47.152;9.828;2023-04-03T04:05:26;3.40;;;2.60;;
31114;SDS011;17764;47.152;9.828;2023-04-03T04:07:52;2.43;;;2.17;;
31114;SDS011;17764;47.152;9.828;2023-04-03T04:10:18;2.37;;;2.00;;
31114;SDS011;17764;47.152;9.828;2023-04-03T04:12:45;2.50;;;2.30;;
31114;SDS011;17764;47.152;9.828;2023-04-03T04:15:11;3.10;;;2.43;;
31114;SDS011;17764;47.152;9.828;2023-04-03T04:17:37;2.73;;;2.50;;
31114;SDS011;17764;47.152;9.828;2023-04-03T04:20:03;2.60;;;2.40;;
31114;SDS011;17764;47.152;9.828;2023-04-03T04:22:30;2.87;;;2.30;;
31114;SDS011;17764;47.152;9.828;2023-04-03T04:24:56;3.03;;;2.50;;
31114;SDS011;17764;47.152;9.828;2023-04-03T04:27:22;2.90;;;2.60;;
31114;SDS011;17764;47.152;9.828;2023-04-03T04:29:48;3.17;;;2.87;;
31114;SDS011;17764;47.152;9.828;2023-04-03T04:32:14;2.60;;;2.40;;
31114;SDS011;17764;47.152;9.828;2023-04-03T04:34:40;3.13;;;2.80;;
31114;SDS011;17764;47.152;9.828;2023-04-03T04:37:06;3.50;;;3.20;;
31114;SDS011;17764;47.152;9.828;2023-04-03T04:39:32;3.40;;;3.10;;
31114;SDS011;17764;47.152;9.828;2023-04-03T04:41:58;3.40;;;3.10;;
31114;SDS011;17764;47.152;9.828;2023-04-03T04:44:24;3.80;;;3.50;;
31114;SDS011;17764;47.152;9.828;2023-04-03T04:46:50;3.47;;;3.17;;
31114;SDS011;17764;47.152;9.828;2023-04-03T04:49:16;3.57;;;3.27;;
31114;SDS011;17764;47.152;9.828;2023-04-03T04:51:42;3.50;;;3.20;;
31114;SDS011;17764;47.152;9.828;2023-04-03T04:54:08;4.03;;;3.53;;
31114;SDS011;17764;47.152;9.828;2023-04-03T04:56:34;3.50;;;3.20;;
31114;SDS011;17764;47.152;9.828;2023-04-03T04:59:00;3.30;;;3.00;;
31114;SDS011;17764;47.152;9.828;2023-04-03T05:01:26;5.90;;;3.97;;
31114;SDS011;17764;47.152;9.828;2023-04-03T05:03:52;3.50;;;3.20;;
31114;SDS011;17764;47.152;9.828;2023-04-03T05:06:18;3.80;;;3.40;;
31114;SDS011;17764;47.152;9.828;2023-04-03T05:08:45;4.17;;;3.77;;
31114;SDS011;17764;47.152;9.828;2023-04-03T05:11:11;4.07;;;3.67;;
31114;SDS011;17764;47.152;9.828;2023-04-03T05:13:37;3.87;;;3.53;;
31114;SDS011;17764;47.152;9.828;2023-04-03T05:16:03;4.60;;;3.83;;
31114;SDS011;17764;47.152;9.828;2023-04-03T05:18:29;3.97;;;3.33;;
31114;SDS011;17764;47.152;9.828;2023-04-03T05:20:55;4.90;;;3.67;;
31114;SDS011;17764;47.152;9.828;2023-04-03T05:23:22;4.53;;;3.83;;
31114;SDS011;17764;47.152;9.828;2023-04-03T05:25:48;3.97;;;3.60;;
31114;SDS011;17764;47.152;9.828;2023-04-03T05:28:14;4.80;;;3.93;;
31114;SDS011;17764;47.152;9.828;2023-04-03T05:30:40;5.07;;;3.80;;
31114;SDS011;17764;47.152;9.828;2023-04-03T05:33:06;4.47;;;4.07;;
31114;SDS011;17764;47.152;9.828;2023-04-03T05:35:32;4.40;;;4.00;;
31114;SDS011;17764;47.152;9.828;2023-04-03T05:38:01;4.90;;;3.87;;
31114;SDS011;17764;47.152;9.828;2023-04-03T05:40:26;5.50;;;3.60;;
31114;SDS011;17764;47.152;9.828;2023-04-03T05:42:52;3.87;;;3.50;;
31114;SDS011;17764;47.152;9.828;2023-04-03T05:45:18;3.97;;;3.53;;
31114;SDS011;17764;47.152;9.828;2023-04-03T05:47:45;4.13;;;3.70;;
31114;SDS011;17764;47.152;9.828;2023-04-03T05:50:12;4.37;;;3.97;;
31114;SDS011;17764;47.152;9.828;2023-04-03T05:52:39;4.03;;;3.63;;
31114;SDS011;17764;47.152;9.828;2023-04-03T05:55:06;4.20;;;3.70;;
31114;SDS011;17764;47.152;9.828;2023-04-03T05:57:32;4.40;;;4.00;;
31114;SDS011;17764;47.152;9.828;2023-04-03T05:59:58;4.33;;;3.93;;
31114;SDS011;17764;47.152;9.828;2023-04-03T06:02:24;4.00;;;3.50;;
31114;SDS011;17764;47.152;9.828;2023-04-03T06:04:51;4.33;;;3.93;;
31114;SDS011;17764;47.152;9.828;2023-04-03T06:07:18;4.23;;;3.83;;
31114;SDS011;17764;47.152;9.828;2023-04-03T06:09:46;4.37;;;3.93;;
31114;SDS011;17764;47.152;9.828;2023-04-03T06:12:12;4.00;;;3.70;;
31114;SDS011;17764;47.152;9.828;2023-04-03T06:14:38;5.33;;;3.57;;
31114;SDS011;17764;47.152;9.828;2023-04-03T06:17:04;4.73;;;4.10;;
31114;SDS011;17764;47.152;9.828;2023-04-03T06:19:31;4.30;;;3.90;;
31114;SDS011;17764;47.152;9.828;2023-04-03T06:21:57;4.37;;;3.97;;
31114;SDS011;17764;47.152;9.828;2023-04-03T06:24:23;4.03;;;3.63;;
31114;SDS011;17764;47.152;9.828;2023-04-03T06:26:50;4.43;;;4.03;;
31114;SDS011;17764;47.152;9.828;2023-04-03T06:29:17;4.80;;;4.00;;
31114;SDS011;17764;47.152;9.828;2023-04-03T06:31:43;4.73;;;4.03;;
31114;SDS011;17764;47.152;9.828;2023-04-03T06:34:09;5.27;;;4.03;;
31114;SDS011;17764;47.152;9.828;2023-04-03T06:36:36;4.50;;;4.10;;
31114;SDS011;17764;47.152;9.828;2023-04-03T06:39:02;5.17;;;4.67;;
31114;SDS011;17764;47.152;9.828;2023-04-03T06:41:28;4.67;;;4.27;;
31114;SDS011;17764;47.152;9.828;2023-04-03T06:43:55;5.43;;;4.93;;
31114;SDS011;17764;47.152;9.828;2023-04-03T06:46:22;4.60;;;4.20;;
31114;SDS011;17764;47.152;9.828;2023-04-03T06:48:49;4.63;;;4.23;;
31114;SDS011;17764;47.152;9.828;2023-04-03T06:53:41;6.37;;;4.07;;
31114;SDS011;17764;47.152;9.828;2023-04-03T06:56:07;7.17;;;4.87;;
31114;SDS011;17764;47.152;9.828;2023-04-03T06:58:33;6.00;;;4.70;;
31114;SDS011;17764;47.152;9.828;2023-04-03T07:00:59;5.67;;;4.13;;
31114;SDS011;17764;47.152;9.828;2023-04-03T07:03:25;6.33;;;4.53;;
31114;SDS011;17764;47.152;9.828;2023-04-03T07:05:51;5.33;;;4.57;;
31114;SDS011;17764;47.152;9.828;2023-04-03T07:08:17;5.80;;;5.20;;
31114;SDS011;17764;47.152;9.828;2023-04-03T07:10:43;5.83;;;4.90;;
31114;SDS011;17764;47.152;9.828;2023-04-03T07:13:09;5.33;;;4.47;;
31114;SDS011;17764;47.152;9.828;2023-04-03T07:15:35;6.30;;;4.43;;
31114;SDS011;17764;47.152;9.828;2023-04-03T07:18:02;5.30;;;4.80;;
31114;SDS011;17764;47.152;9.828;2023-04-03T07:20:29;5.17;;;4.67;;
31114;SDS011;17764;47.152;9.828;2023-04-03T07:23:04;6.07;;;4.73;;
31114;SDS011;17764;47.152;9.828;2023-04-03T07:25:33;5.57;;;4.70;;
31114;SDS011;17764;47.152;9.828;2023-04-03T07:27:59;5.27;;;4.77;;
31114;SDS011;17764;47.152;9.828;2023-04-03T07:30:25;4.77;;;4.30;;
31114;SDS011;17764;47.152;9.828;2023-04-03T07:32:52;5.20;;;4.53;;
31114;SDS011;17764;47.152;9.828;2023-04-03T07:35:18;5.20;;;4.70;;
31114;SDS011;17764;47.152;9.828;2023-04-03T07:37:44;5.10;;;4.60;;
31114;SDS011;17764;47.152;9.828;2023-04-03T07:40:11;5.63;;;4.57;;
31114;SDS011;17764;47.152;9.828;2023-04-03T07:42:37;5.50;;;4.37;;
31114;SDS011;17764;47.152;9.828;2023-04-03T07:45:03;5.30;;;4.60;;
31114;SDS011;17764;47.152;9.828;2023-04-03T07:47:30;4.93;;;4.43;;
31114;SDS011;17764;47.152;9.828;2023-04-03T07:49:56;4.50;;;4.10;;
31114;SDS011;17764;47.152;9.828;2023-04-03T07:52:23;4.93;;;4.43;;
31114;SDS011;17764;47.152;9.828;2023-04-03T07:54:49;5.07;;;4.37;;
31114;SDS011;17764;47.152;9.828;2023-04-03T07:57:15;4.97;;;4.33;;
31114;SDS011;17764;47.152;9.828;2023-04-03T07:59:41;5.17;;;4.40;;
31114;SDS011;17764;47.152;9.828;2023-04-03T08:02:11;5.13;;;4.60;;
31114;SDS011;17764;47.152;9.828;2023-04-03T08:04:37;4.70;;;4.30;;
31114;SDS011;17764;47.152;9.828;2023-04-03T08:07:04;5.07;;;4.30;;
31114;SDS011;17764;47.152;9.828;2023-04-03T08:09:30;4.80;;;4.30;;
31114;SDS011;17764;47.152;9.828;2023-04-03T08:11:57;4.97;;;4.47;;
31114;SDS011;17764;47.152;9.828;2023-04-03T08:14:23;4.70;;;4.20;;
31114;SDS011;17764;47.152;9.828;2023-04-03T08:16:49;5.50;;;4.37;;
31114;SDS011;17764;47.152;9.828;2023-04-03T08:19:15;5.23;;;4.73;;
31114;SDS011;17764;47.152;9.828;2023-04-03T08:21:43;5.20;;;4.30;;
31114;SDS011;17764;47.152;9.828;2023-04-03T08:24:09;6.50;;;4.80;;
31114;SDS011;17764;47.152;9.828;2023-04-03T08:26:35;4.90;;;4.40;;
31114;SDS011;17764;47.152;9.828;2023-04-03T08:29:01;5.60;;;5.10;;
31114;SDS011;17764;47.152;9.828;2023-04-03T08:31:27;4.67;;;4.27;;
31114;SDS011;17764;47.152;9.828;2023-04-03T08:33:54;5.83;;;4.70;;
31114;SDS011;17764;47.152;9.828;2023-04-03T08:36:24;4.80;;;4.33;;
31114;SDS011;17764;47.152;9.828;2023-04-03T08:38:51;4.63;;;4.23;;
31114;SDS011;17764;47.152;9.828;2023-04-03T08:41:25;5.27;;;4.77;;
31114;SDS011;17764;47.152;9.828;2023-04-03T08:46:26;5.07;;;4.57;;
31114;SDS011;17764;47.152;9.828;2023-04-03T08:49:00;4.70;;;4.30;;
31114;SDS011;17764;47.152;9.828;2023-04-03T08:51:26;4.57;;;4.17;;
31114;SDS011;17764;47.152;9.828;2023-04-03T08:56:18;5.33;;;4.53;;
31114;SDS011;17764;47.152;9.828;2023-04-03T08:58:47;5.87;;;5.27;;
31114;SDS011;17764;47.152;9.828;2023-04-03T09:03:43;5.53;;;5.03;;
31114;SDS011;17764;47.152;9.828;2023-04-03T09:11:27;5.73;;;4.93;;
31114;SDS011;17764;47.152;9.828;2023-04-03T09:21:55;5.87;;;5.33;;
31114;SDS011;17764;47.152;9.828;2023-04-03T09:24:21;8.20;;;5.87;;
31114;SDS011;17764;47.152;9.828;2023-04-03T09:26:51;5.83;;;5.23;;
31114;SDS011;17764;47.152;9.828;2023-04-03T09:29:21;5.87;;;5.10;;
31114;SDS011;17764;47.152;9.828;2023-04-03T09:31:48;5.47;;;4.97;;
31114;SDS011;17764;47.152;9.828;2023-04-03T09:34:22;5.43;;;4.93;;
31114;SDS011;17764;47.152;9.828;2023-04-03T09:36:49;5.03;;;4.50;;
31114;SDS011;17764;47.152;9.828;2023-04-03T09:39:24;5.80;;;5.00;;
31114;SDS011;17764;47.152;9.828;2023-04-03T09:42:05;5.70;;;5.13;;
31114;SDS011;17764;47.152;9.828;2023-04-03T09:44:36;8.13;;;5.10;;
31114;SDS011;17764;47.152;9.828;2023-04-03T09:49:50;5.87;;;5.27;;
31114;SDS011;17764;47.152;9.828;2023-04-03T09:52:23;5.07;;;4.57;;
31114;SDS011;17764;47.152;9.828;2023-04-03T09:54:50;4.33;;;3.93;;
31114;SDS011;17764;47.152;9.828;2023-04-03T09:57:16;5.00;;;4.17;;
31114;SDS011;17764;47.152;9.828;2023-04-03T09:59:46;5.80;;;4.73;;
31114;SDS011;17764;47.152;9.828;2023-04-03T10:02:21;4.87;;;4.37;;
31114;SDS011;17764;47.152;9.828;2023-04-03T10:04:48;5.00;;;4.40;;
31114;SDS011;17764;47.152;9.828;2023-04-03T10:07:32;5.63;;;4.37;;
31114;SDS011;17764;47.152;9.828;2023-04-03T10:10:00;6.50;;;3.77;;
31114;SDS011;17764;47.152;9.828;2023-04-03T10:12:26;6.10;;;4.20;;
31114;SDS011;17764;47.152;9.828;2023-04-03T10:22:16;4.27;;;3.87;;
31114;SDS011;17764;47.152;9.828;2023-04-03T10:27:34;5.27;;;4.30;;
31114;SDS011;17764;47.152;9.828;2023-04-03T10:30:10;4.70;;;4.20;;
31114;SDS011;17764;47.152;9.828;2023-04-03T10:32:55;4.00;;;3.60;;
31114;SDS011;17764;47.152;9.828;2023-04-03T10:51:23;4.57;;;3.90;;
31114;SDS011;17764;47.152;9.828;2023-04-03T10:53:59;4.87;;;4.00;;
31114;SDS011;17764;47.152;9.828;2023-04-03T10:58:54;4.30;;;3.80;;
31114;SDS011;17764;47.152;9.828;2023-04-03T11:01:22;4.73;;;3.70;;
31114;SDS011;17764;47.152;9.828;2023-04-03T11:03:52;7.43;;;4.40;;
31114;SDS011;17764;47.152;9.828;2023-04-03T11:06:19;5.20;;;3.17;;
31114;SDS011;17764;47.152;9.828;2023-04-03T11:08:50;4.80;;;3.90;;
31114;SDS011;17764;47.152;9.828;2023-04-03T11:11:29;4.33;;;3.60;;
31114;SDS011;17764;47.152;9.828;2023-04-03T11:14:01;6.43;;;3.60;;
31114;SDS011;17764;47.152;9.828;2023-04-03T11:16:28;4.53;;;3.73;;
31114;SDS011;17764;47.152;9.828;2023-04-03T11:19:07;4.17;;;3.17;;
31114;SDS011;17764;47.152;9.828;2023-04-03T11:21:37;4.07;;;3.67;;
31114;SDS011;17764;47.152;9.828;2023-04-03T11:24:05;4.93;;;3.90;;
31114;SDS011;17764;47.152;9.828;2023-04-03T11:26:36;4.10;;;3.70;;
31114;SDS011;17764;47.152;9.828;2023-04-03T11:29:06;4.13;;;3.63;;
31114;SDS011;17764;47.152;9.828;2023-04-03T11:34:24;4.07;;;3.60;;
31114;SDS011;17764;47.152;9.828;2023-04-03T11:36:58;5.23;;;4.03;;
31114;SDS011;17764;47.152;9.828;2023-04-03T11:39:26;4.10;;;3.53;;
31114;SDS011;17764;47.152;9.828;2023-04-03T11:41:53;3.90;;;3.50;;
31114;SDS011;17764;47.152;9.828;2023-04-03T11:44:36;4.20;;;3.77;;
31114;SDS011;17764;47.152;9.828;2023-04-03T11:47:04;7.20;;;3.50;;
31114;SDS011;17764;47.152;9.828;2023-04-03T11:55:00;3.57;;;3.13;;
31114;SDS011;17764;47.152;9.828;2023-04-03T11:57:43;7.73;;;3.80;;
31114;SDS011;17764;47.152;9.828;2023-04-03T12:02:55;4.07;;;3.40;;
31114;SDS011;17764;47.152;9.828;2023-04-03T12:05:26;3.93;;;3.47;;
31114;SDS011;17764;47.152;9.828;2023-04-03T12:10:38;3.90;;;3.00;;
31114;SDS011;17764;47.152;9.828;2023-04-03T12:13:12;3.57;;;3.00;;
31114;SDS011;17764;47.152;9.828;2023-04-03T12:25:50;5.90;;;3.20;;
31114;SDS011;17764;47.152;9.828;2023-04-03T12:28:16;3.50;;;3.20;;
31114;SDS011;17764;47.152;9.828;2023-04-03T12:30:43;5.87;;;3.37;;
31114;SDS011;17764;47.152;9.828;2023-04-03T12:33:30;3.30;;;3.00;;
31114;SDS011;17764;47.152;9.828;2023-04-03T12:36:21;5.27;;;3.20;;
31114;SDS011;17764;47.152;9.828;2023-04-03T12:41:30;3.53;;;3.23;;
31114;SDS011;17764;47.152;9.828;2023-04-03T12:46:51;3.57;;;3.27;;
31114;SDS011;17764;47.152;9.828;2023-04-03T12:49:33;5.30;;;3.60;;
31114;SDS011;17764;47.152;9.828;2023-04-03T12:52:00;4.30;;;3.87;;
31114;SDS011;17764;47.152;9.828;2023-04-03T12:54:30;7.37;;;4.10;;
31114;SDS011;17764;47.152;9.828;2023-04-03T12:59:43;17.70;;;4.63;;
31114;SDS011;17764;47.152;9.828;2023-04-03T13:02:30;8.37;;;4.47;;
31114;SDS011;17764;47.152;9.828;2023-04-03T13:04:59;16.47;;;5.13;;
31114;SDS011;17764;47.152;9.828;2023-04-03T13:07:31;14.57;;;4.53;;
31114;SDS011;17764;47.152;9.828;2023-04-03T13:10:09;24.37;;;5.17;;
31114;SDS011;17764;47.152;9.828;2023-04-03T13:12:53;14.13;;;4.73;;
31114;SDS011;17764;47.152;9.828;2023-04-03T13:15:26;9.93;;;3.70;;
31114;SDS011;17764;47.152;9.828;2023-04-03T13:18:01;10.90;;;5.13;;
31114;SDS011;17764;47.152;9.828;2023-04-03T13:20:28;9.40;;;4.37;;
31114;SDS011;17764;47.152;9.828;2023-04-03T13:22:56;19.10;;;4.90;;
31114;SDS011;17764;47.152;9.828;2023-04-03T13:25:24;11.87;;;4.20;;
31114;SDS011;17764;47.152;9.828;2023-04-03T13:27:51;9.60;;;4.27;;
31114;SDS011;17764;47.152;9.828;2023-04-03T13:30:36;6.27;;;4.40;;
31114;SDS011;17764;47.152;9.828;2023-04-03T13:33:04;10.90;;;4.43;;
31114;SDS011;17764;47.152;9.828;2023-04-03T13:38:43;10.77;;;4.63;;
31114;SDS011;17764;47.152;9.828;2023-04-03T13:41:00;23.83;;;4.63;;
31114;SDS011;17764;47.152;9.828;2023-04-03T13:43:28;10.10;;;4.37;;
31114;SDS011;17764;47.152;9.828;2023-04-03T13:45:59;21.97;;;4.33;;
31114;SDS011;17764;47.152;9.828;2023-04-03T13:48:26;12.60;;;4.23;;
31114;SDS011;17764;47.152;9.828;2023-04-03T13:50:53;7.13;;;3.47;;
31114;SDS011;17764;47.152;9.828;2023-04-03T13:53:20;9.10;;;3.67;;
31114;SDS011;17764;47.152;9.828;2023-04-03T13:56:29;20.17;;;4.13;;
31114;SDS011;17764;47.152;9.828;2023-04-03T13:58:36;24.17;;;4.70;;
31114;SDS011;17764;47.152;9.828;2023-04-03T14:01:11;8.03;;;4.27;;
31114;SDS011;17764;47.152;9.828;2023-04-03T14:03:52;8.30;;;3.50;;
31114;SDS011;17764;47.152;9.828;2023-04-03T14:06:18;11.20;;;4.20;;
31114;SDS011;17764;47.152;9.828;2023-04-03T14:08:46;8.37;;;3.90;;
31114;SDS011;17764;47.152;9.828;2023-04-03T14:11:15;9.03;;;4.20;;
31114;SDS011;17764;47.152;9.828;2023-04-03T14:13:42;12.17;;;3.13;;
31114;SDS011;17764;47.152;9.828;2023-04-03T14:16:12;5.33;;;2.87;;
31114;SDS011;17764;47.152;9.828;2023-04-03T14:18:38;6.30;;;3.27;;
31114;SDS011;17764;47.152;9.828;2023-04-03T14:21:05;6.43;;;3.30;;
31114;SDS011;17764;47.152;9.828;2023-04-03T14:23:31;3.47;;;3.07;;
31114;SDS011;17764;47.152;9.828;2023-04-03T14:25:57;4.47;;;2.63;;
31114;SDS011;17764;47.152;9.828;2023-04-03T14:28:25;3.33;;;3.03;;
31114;SDS011;17764;47.152;9.828;2023-04-03T14:30:51;3.53;;;2.93;;
31114;SDS011;17764;47.152;9.828;2023-04-03T14:33:19;9.60;;;2.80;;
31114;SDS011;17764;47.152;9.828;2023-04-03T14:35:45;4.50;;;2.80;;
31114;SDS011;17764;47.152;9.828;2023-04-03T14:38:13;3.43;;;2.40;;
31114;SDS011;17764;47.152;9.828;2023-04-03T14:40:45;3.57;;;2.43;;
31114;SDS011;17764;47.152;9.828;2023-04-03T14:43:12;4.77;;;2.50;;
31114;SDS011;17764;47.152;9.828;2023-04-03T14:45:38;2.87;;;2.20;;
31114;SDS011;17764;47.152;9.828;2023-04-03T14:48:04;7.60;;;2.57;;
31114;SDS011;17764;47.152;9.828;2023-04-03T14:50:32;4.43;;;2.20;;
31114;SDS011;17764;47.152;9.828;2023-04-03T14:52:58;3.30;;;2.40;;
31114;SDS011;17764;47.152;9.828;2023-04-03T14:55:25;2.40;;;2.10;;
31114;SDS011;17764;47.152;9.828;2023-04-03T14:57:51;2.87;;;1.90;;
31114;SDS011;17764;47.152;9.828;2023-04-03T15:00:19;2.43;;;2.20;;
31114;SDS011;17764;47.152;9.828;2023-04-03T15:02:45;3.00;;;2.20;;
31114;SDS011;17764;47.152;9.828;2023-04-03T15:05:12;2.97;;;2.20;;
31114;SDS011;17764;47.152;9.828;2023-04-03T15:07:40;3.33;;;2.20;;
31114;SDS011;17764;47.152;9.828;2023-04-03T15:10:14;2.67;;;2.00;;
31114;SDS011;17764;47.152;9.828;2023-04-03T15:12:41;2.27;;;2.00;;
31114;SDS011;17764;47.152;9.828;2023-04-03T15:15:07;3.57;;;2.40;;
31114;SDS011;17764;47.152;9.828;2023-04-03T15:17:33;3.40;;;2.00;;
31114;SDS011;17764;47.152;9.828;2023-04-03T15:20:00;2.50;;;2.00;;
31114;SDS011;17764;47.152;9.828;2023-04-03T15:22:26;2.23;;;2.00;;
31114;SDS011;17764;47.152;9.828;2023-04-03T15:24:52;5.97;;;2.57;;
31114;SDS011;17764;47.152;9.828;2023-04-03T15:27:18;2.80;;;2.10;;
31114;SDS011;17764;47.152;9.828;2023-04-03T15:29:45;2.67;;;2.20;;
31114;SDS011;17764;47.152;9.828;2023-04-03T15:32:11;2.57;;;1.90;;
31114;SDS011;17764;47.152;9.828;2023-04-03T15:34:38;2.03;;;1.80;;
31114;SDS011;17764;47.152;9.828;2023-04-03T15:37:04;2.47;;;1.80;;
31114;SDS011;17764;47.152;9.828;2023-04-03T15:39:30;4.77;;;2.23;;
31114;SDS011;17764;47.152;9.828;2023-04-03T15:41:57;3.70;;;2.07;;
31114;SDS011;17764;47.152;9.828;2023-04-03T15:44:24;4.03;;;2.17;;
31114;SDS011;17764;47.152;9.828;2023-04-03T15:46:51;2.57;;;2.00;;
31114;SDS011;17764;47.152;9.828;2023-04-03T15:49:17;2.97;;;1.97;;
31114;SDS011;17764;47.152;9.828;2023-04-03T15:51:44;4.53;;;2.10;;
31114;SDS011;17764;47.152;9.828;2023-04-03T15:54:10;4.70;;;2.57;;
31114;SDS011;17764;47.152;9.828;2023-04-03T15:56:36;3.43;;;2.37;;
31114;SDS011;17764;47.152;9.828;2023-04-03T15:59:02;6.40;;;2.63;;
31114;SDS011;17764;47.152;9.828;2023-04-03T16:01:28;3.17;;;2.47;;
31114;SDS011;17764;47.152;9.828;2023-04-03T16:03:54;4.30;;;2.30;;
31114;SDS011;17764;47.152;9.828;2023-04-03T16:06:21;3.53;;;2.60;;
31114;SDS011;17764;47.152;9.828;2023-04-03T16:08:47;2.77;;;2.30;;
31114;SDS011;17764;47.152;9.828;2023-04-03T16:11:13;3.70;;;2.37;;
31114;SDS011;17764;47.152;9.828;2023-04-03T16:13:39;3.17;;;2.30;;
31114;SDS011;17764;47.152;9.828;2023-04-03T16:16:05;3.67;;;2.60;;
31114;SDS011;17764;47.152;9.828;2023-04-03T16:18:32;2.80;;;2.20;;
31114;SDS011;17764;47.152;9.828;2023-04-03T16:20:59;2.97;;;2.40;;
31114;SDS011;17764;47.152;9.828;2023-04-03T16:23:25;3.33;;;2.33;;
31114;SDS011;17764;47.152;9.828;2023-04-03T16:25:51;2.83;;;2.13;;